createdAt,value
2022-09-22T00:04:52.283Z,1.35
2022-09-22T00:07:54.355Z,1.65
2022-09-22T00:11:08.006Z,1.73
2022-09-22T00:14:27.728Z,1.45
2022-09-22T00:17:29.719Z,1.70
2022-09-22T00:20:31.746Z,2.00
2022-09-22T00:23:34.443Z,2.33
2022-09-22T00:26:37.825Z,1.90
2022-09-22T00:29:39.835Z,1.92
2022-09-22T00:32:41.762Z,1.80
2022-09-22T00:35:43.766Z,1.73
2022-09-22T00:38:46.369Z,1.85
2022-09-22T00:44:51.631Z,1.98
2022-09-22T00:47:53.760Z,1.70
2022-09-22T00:50:58.240Z,1.75
2022-09-22T00:54:04.070Z,1.60
2022-09-22T00:57:16.451Z,2.28
2022-09-22T01:00:19.212Z,1.67
2022-09-22T01:03:26.247Z,1.88
2022-09-22T01:06:31.524Z,1.55
2022-09-22T01:09:33.939Z,2.15
2022-09-22T01:12:36.954Z,1.80
2022-09-22T01:15:46.297Z,1.92
2022-09-22T01:19:06.525Z,1.80
2022-09-22T01:22:26.668Z,1.80
2022-09-22T01:26:03.946Z,2.28
2022-09-22T01:29:17.635Z,1.77
2022-09-22T01:32:27.562Z,1.85
2022-09-22T01:35:36.289Z,2.20
2022-09-22T01:42:24.128Z,1.60
2022-09-22T01:45:29.448Z,1.60
2022-09-22T01:48:37.273Z,1.98
2022-09-22T01:51:50.114Z,1.70
2022-09-22T01:55:18.550Z,1.80
2022-09-22T01:58:34.417Z,1.63
2022-09-22T02:01:44.603Z,2.00
2022-09-22T02:04:52.859Z,1.60
2022-09-22T02:07:56.109Z,1.83
2022-09-22T02:11:03.880Z,1.77
2022-09-22T02:14:07.017Z,1.40
2022-09-22T02:17:08.971Z,1.60
2022-09-22T02:20:13.224Z,2.03
2022-09-22T02:23:15.301Z,1.80
2022-09-22T02:26:31.882Z,1.60
2022-09-22T02:29:42.045Z,1.48
2022-09-22T02:32:47.856Z,1.85
2022-09-22T02:35:55.898Z,1.50
2022-09-22T02:39:22.785Z,1.70
2022-09-22T02:42:27.537Z,1.60
2022-09-22T02:45:56.085Z,1.63
2022-09-22T02:49:02.992Z,1.80
2022-09-22T02:52:13.473Z,1.50
2022-09-22T02:55:15.559Z,1.70
2022-09-22T02:58:17.823Z,1.90
2022-09-22T03:01:19.889Z,1.77
2022-09-22T03:04:22.909Z,2.10
2022-09-22T03:07:25.019Z,1.80
2022-09-22T03:10:27.032Z,1.60
2022-09-22T03:13:29.006Z,1.80
2022-09-22T03:16:31.036Z,1.95
2022-09-22T03:19:33.033Z,1.73
2022-09-22T03:22:35.092Z,1.95
2022-09-22T03:25:37.111Z,1.80
2022-09-22T03:28:39.123Z,2.30
2022-09-22T03:31:41.211Z,1.75
2022-09-22T03:34:43.325Z,2.28
2022-09-22T03:37:46.477Z,1.80
2022-09-22T03:40:52.060Z,1.88
2022-09-22T03:43:54.375Z,1.90
2022-09-22T03:46:57.931Z,2.08
2022-09-22T03:50:00.185Z,1.63
2022-09-22T03:53:02.199Z,1.83
2022-09-22T03:56:12.796Z,1.88
2022-09-22T03:59:15.228Z,1.90
2022-09-22T04:02:17.394Z,1.55
2022-09-22T04:05:19.510Z,1.90
2022-09-22T04:08:21.482Z,2.55
2022-09-22T04:11:23.847Z,1.70
2022-09-22T04:14:26.030Z,1.58
2022-09-22T04:17:28.183Z,2.47
2022-09-22T04:20:30.381Z,1.75
2022-09-22T04:23:33.065Z,1.77
2022-09-22T04:26:35.232Z,2.17
2022-09-22T04:29:37.166Z,1.95
2022-09-22T04:32:39.157Z,2.17
2022-09-22T04:35:41.232Z,2.20
2022-09-22T04:38:43.302Z,2.25
2022-09-22T04:41:45.457Z,2.13
2022-09-22T04:44:47.668Z,2.70
2022-09-22T04:47:52.961Z,3.10
2022-09-22T04:50:57.783Z,2.15
2022-09-22T04:53:59.990Z,2.65
2022-09-22T04:57:04.431Z,2.15
2022-09-22T05:00:08.479Z,2.40
2022-09-22T05:03:16.519Z,2.67
2022-09-22T05:06:22.383Z,2.47
2022-09-22T05:12:27.318Z,2.10
2022-09-22T05:15:29.479Z,2.33
2022-09-22T05:18:31.393Z,2.50
2022-09-22T05:21:33.372Z,2.50
2022-09-22T05:24:35.694Z,2.22
2022-09-22T05:27:42.855Z,2.88
2022-09-22T05:30:44.750Z,2.22
2022-09-22T05:33:46.620Z,2.38
2022-09-22T05:36:48.563Z,2.50
2022-09-22T05:39:52.658Z,2.40
2022-09-22T05:42:54.725Z,2.40
2022-09-22T05:45:56.634Z,2.75
2022-09-22T05:48:58.577Z,2.40
2022-09-22T05:52:00.591Z,2.30
2022-09-22T05:55:02.530Z,3.08
2022-09-22T05:58:04.577Z,2.53
2022-09-22T06:01:06.554Z,2.35
2022-09-22T06:04:08.531Z,2.60
2022-09-22T06:07:10.394Z,2.50
2022-09-22T06:10:12.646Z,2.95
2022-09-22T06:13:14.616Z,2.85
2022-09-22T06:16:17.262Z,2.53
2022-09-22T06:19:19.563Z,3.00
2022-09-22T06:22:21.487Z,2.67
2022-09-22T06:25:23.972Z,3.00
2022-09-22T06:28:27.186Z,1.92
2022-09-22T06:31:29.076Z,2.30
2022-09-22T06:34:30.978Z,2.53
2022-09-22T06:37:33.114Z,2.00
2022-09-22T06:40:35.743Z,2.20
2022-09-22T06:43:37.642Z,2.20
2022-09-22T06:46:39.802Z,2.40
2022-09-22T06:49:41.660Z,2.40
2022-09-22T06:52:44.097Z,2.13
2022-09-22T07:01:54.868Z,2.20
2022-09-22T07:04:56.922Z,2.45
2022-09-22T07:07:58.823Z,2.20
2022-09-22T07:11:03.281Z,1.90
2022-09-22T07:14:05.104Z,2.28
2022-09-22T07:17:06.981Z,2.20
2022-09-22T07:20:09.125Z,2.30
2022-09-22T07:23:12.338Z,2.10
2022-09-22T07:26:16.070Z,2.58
2022-09-22T07:29:17.945Z,2.50
2022-09-22T07:32:20.876Z,2.00
2022-09-22T07:35:22.890Z,2.20
2022-09-22T07:38:27.438Z,2.10
2022-09-22T07:41:31.476Z,2.22
2022-09-22T07:44:33.372Z,2.15
2022-09-22T07:47:35.181Z,2.33
2022-09-22T07:50:37.113Z,2.08
2022-09-22T07:56:45.229Z,2.05
2022-09-22T07:59:47.106Z,2.15
2022-09-22T08:06:05.320Z,2.40
2022-09-22T08:09:07.975Z,2.33
2022-09-22T08:15:12.460Z,2.20
2022-09-22T08:18:14.373Z,1.95
2022-09-22T08:24:19.682Z,1.80
2022-09-22T08:27:21.573Z,2.00
2022-09-22T08:30:23.495Z,2.10
2022-09-22T08:33:26.171Z,2.33
2022-09-22T08:36:28.513Z,1.90
2022-09-22T08:39:30.385Z,1.60
2022-09-22T08:42:33.956Z,1.75
2022-09-22T08:45:38.264Z,1.48
2022-09-22T08:48:42.490Z,1.40
2022-09-22T08:51:56.376Z,1.52
2022-09-22T08:54:58.729Z,1.50
2022-09-22T08:58:12.342Z,1.95
2022-09-22T09:01:39.032Z,1.80
2022-09-22T09:04:48.893Z,1.40
2022-09-22T09:08:15.027Z,1.88
2022-09-22T09:11:30.774Z,1.00
2022-09-22T09:14:47.597Z,1.20
2022-09-22T09:17:51.803Z,1.30
2022-09-22T09:20:54.989Z,1.38
2022-09-22T09:27:29.082Z,1.63
2022-09-22T09:30:45.595Z,1.25
2022-09-22T09:33:56.321Z,1.17
2022-09-22T09:37:12.787Z,1.38
2022-09-22T09:40:19.625Z,1.38
2022-09-22T09:43:23.810Z,1.10
2022-09-22T09:46:51.686Z,1.25
2022-09-22T09:49:54.118Z,1.05
2022-09-22T09:52:55.955Z,1.25
2022-09-22T09:59:06.069Z,1.23
2022-09-22T10:02:20.832Z,0.98
2022-09-22T10:05:23.512Z,1.33
2022-09-22T10:08:25.683Z,1.38
2022-09-22T10:11:32.006Z,1.00
2022-09-22T10:14:37.201Z,1.02
2022-09-22T10:17:43.194Z,0.70
2022-09-22T10:20:45.112Z,1.00
2022-09-22T10:26:53.728Z,0.60
2022-09-22T10:30:25.462Z,0.77
2022-09-22T10:33:27.455Z,0.85
2022-09-22T10:36:30.554Z,0.90
2022-09-22T10:39:41.714Z,0.90
2022-09-22T10:42:44.625Z,0.70
2022-09-22T10:46:14.516Z,0.70
2022-09-22T10:49:44.326Z,0.70
2022-09-22T11:03:46.826Z,0.57
2022-09-22T11:07:14.347Z,0.82
2022-09-22T11:10:36.299Z,0.70
2022-09-22T11:14:11.440Z,0.60
2022-09-22T11:17:25.652Z,0.85
2022-09-22T11:20:30.942Z,0.55
2022-09-22T11:23:40.877Z,0.65
2022-09-22T11:26:52.323Z,0.60
2022-09-22T11:30:28.847Z,0.68
2022-09-22T11:33:58.349Z,0.77
2022-09-22T11:37:19.238Z,0.80
2022-09-22T11:40:29.690Z,0.70
2022-09-22T11:44:18.775Z,1.20
2022-09-22T11:47:40.816Z,0.70
2022-09-22T11:50:48.795Z,0.70
2022-09-22T11:53:59.864Z,0.80
2022-09-22T11:57:07.667Z,0.90
2022-09-22T12:00:14.234Z,1.10
2022-09-22T12:03:35.760Z,0.68
2022-09-22T12:06:43.045Z,0.85
2022-09-22T12:09:55.536Z,0.70
2022-09-22T12:12:57.675Z,0.70
2022-09-22T12:16:19.851Z,0.90
2022-09-22T12:19:33.693Z,0.60
2022-09-22T12:22:44.487Z,0.80
2022-09-22T12:25:49.066Z,0.77
2022-09-22T12:28:51.432Z,0.82
2022-09-22T12:31:58.006Z,0.90
2022-09-22T12:35:00.736Z,1.02
2022-09-22T12:38:02.926Z,0.85
2022-09-22T12:41:06.116Z,0.80
2022-09-22T12:44:13.330Z,1.13
2022-09-22T12:47:35.479Z,0.75
2022-09-22T12:50:40.630Z,0.80
2022-09-22T12:53:43.857Z,1.00
2022-09-22T12:56:54.048Z,0.70
2022-09-22T13:00:18.658Z,0.77
2022-09-22T13:03:26.680Z,0.90
2022-09-22T13:09:30.622Z,1.10
2022-09-22T13:12:32.659Z,0.70
2022-09-22T13:15:46.891Z,0.88
2022-09-22T13:18:58.606Z,0.70
2022-09-22T13:22:15.796Z,0.95
2022-09-22T13:25:28.080Z,0.90
2022-09-22T13:28:29.980Z,0.77
2022-09-22T13:31:38.920Z,0.80
2022-09-22T13:34:40.774Z,0.90
2022-09-22T13:37:42.847Z,0.93
2022-09-22T13:44:00.074Z,1.02
2022-09-22T13:47:07.256Z,1.50
2022-09-22T13:50:18.693Z,0.85
2022-09-22T13:53:22.478Z,0.80
2022-09-22T13:56:25.987Z,0.90
2022-09-22T13:59:37.324Z,0.95
2022-09-22T14:02:45.332Z,0.75
2022-09-22T14:08:57.128Z,0.70
2022-09-22T14:11:59.184Z,1.05
2022-09-22T14:15:52.344Z,1.15
2022-09-22T14:18:58.839Z,1.10
2022-09-22T14:22:03.527Z,1.00
2022-09-22T14:25:06.014Z,0.80
2022-09-22T14:28:21.006Z,1.05
2022-09-22T14:31:27.654Z,0.98
2022-09-22T14:34:32.734Z,1.00
2022-09-22T14:37:42.212Z,1.17
2022-09-22T14:40:57.850Z,1.00
2022-09-22T14:43:59.866Z,1.10
2022-09-22T14:50:36.198Z,1.15
2022-09-22T14:53:46.205Z,0.90
2022-09-22T14:56:48.127Z,1.30
2022-09-22T14:59:54.976Z,0.90
2022-09-22T15:02:56.922Z,0.80
2022-09-22T15:06:11.207Z,0.90
2022-09-22T15:09:42.852Z,0.90
2022-09-22T15:12:49.398Z,1.15
2022-09-22T15:15:51.640Z,0.80
2022-09-22T15:18:53.575Z,1.08
2022-09-22T15:21:55.476Z,1.20
2022-09-22T15:24:57.769Z,1.10
2022-09-22T15:27:59.702Z,1.00
2022-09-22T15:31:01.564Z,1.20
2022-09-22T15:34:03.492Z,0.85
2022-09-22T15:37:05.395Z,1.15
2022-09-22T15:40:14.145Z,1.00
2022-09-22T15:43:18.735Z,1.00
2022-09-22T15:46:33.952Z,0.70
2022-09-22T15:49:36.967Z,0.88
2022-09-22T15:52:38.889Z,1.00
2022-09-22T15:55:40.787Z,0.90
2022-09-22T15:58:43.586Z,0.85
2022-09-22T16:01:49.082Z,1.02
2022-09-22T16:04:51.739Z,0.90
2022-09-22T16:07:55.241Z,1.10
2022-09-22T16:10:58.323Z,0.70
2022-09-22T16:14:01.839Z,0.77
2022-09-22T16:17:03.670Z,0.95
2022-09-22T16:20:06.179Z,0.93
2022-09-22T16:23:09.498Z,0.50
2022-09-22T16:26:11.681Z,0.80
2022-09-22T16:29:13.657Z,0.90
2022-09-22T16:32:15.575Z,0.73
2022-09-22T16:35:17.522Z,0.90
2022-09-22T16:38:19.396Z,0.70
2022-09-22T16:41:23.577Z,1.30
2022-09-22T16:44:25.609Z,1.80
2022-09-22T16:47:27.415Z,1.63
2022-09-22T16:50:29.341Z,1.20
2022-09-22T16:53:31.274Z,1.30
2022-09-22T16:56:34.826Z,1.40
2022-09-22T16:59:36.823Z,0.90
2022-09-22T17:02:38.757Z,0.88
2022-09-22T17:05:40.601Z,0.75
2022-09-22T17:08:42.795Z,0.98
2022-09-22T17:11:46.377Z,0.90
2022-09-22T17:14:48.206Z,1.02
2022-09-22T17:17:50.396Z,1.13
2022-09-22T17:20:52.263Z,0.95
2022-09-22T17:23:55.661Z,0.90
2022-09-22T17:26:59.000Z,0.93
2022-09-22T17:30:00.862Z,0.93
2022-09-22T17:33:02.740Z,0.88
2022-09-22T17:36:05.700Z,0.95
2022-09-22T17:39:07.960Z,1.02
2022-09-22T17:45:11.681Z,1.00
2022-09-22T17:48:13.691Z,1.30
2022-09-22T17:51:34.184Z,0.90
2022-09-22T17:54:37.868Z,1.20
2022-09-22T17:57:44.670Z,0.95
2022-09-22T18:00:46.549Z,1.23
2022-09-22T18:03:48.413Z,1.35
2022-09-22T18:06:53.743Z,1.55
2022-09-22T18:09:55.624Z,1.10
2022-09-22T18:12:57.740Z,1.10
2022-09-22T18:16:21.265Z,1.23
2022-09-22T18:19:23.424Z,1.23
2022-09-22T18:22:27.144Z,1.00
2022-09-22T18:25:29.030Z,1.80
2022-09-22T18:28:30.902Z,2.22
2022-09-22T18:31:33.030Z,1.90
2022-09-22T18:34:34.909Z,1.67
2022-09-22T18:37:36.803Z,1.50
2022-09-22T18:40:38.705Z,1.30
2022-09-22T18:43:40.629Z,1.60
2022-09-22T18:46:45.167Z,1.83
2022-09-22T18:49:47.156Z,1.90
2022-09-22T18:52:49.099Z,2.15
2022-09-22T18:55:50.949Z,1.88
2022-09-22T18:58:55.052Z,1.60
2022-09-22T19:01:57.045Z,1.70
2022-09-22T19:04:59.035Z,2.55
2022-09-22T19:08:01.476Z,2.28
2022-09-22T19:11:03.338Z,1.65
2022-09-22T19:14:05.291Z,1.90
2022-09-22T19:17:09.331Z,1.58
2022-09-22T19:20:14.170Z,1.80
2022-09-22T19:23:16.295Z,1.60
2022-09-22T19:26:18.179Z,1.55
2022-09-22T19:29:20.113Z,1.63
2022-09-22T19:32:22.009Z,1.50
2022-09-22T19:35:23.945Z,2.58
2022-09-22T19:38:25.819Z,2.03
2022-09-22T19:41:28.152Z,3.17
2022-09-22T19:44:30.435Z,2.47
2022-09-22T19:47:38.995Z,2.70
2022-09-22T19:50:40.832Z,2.03
2022-09-22T19:53:42.817Z,1.90
2022-09-22T19:56:44.672Z,1.75
2022-09-22T19:59:46.657Z,1.92
2022-09-22T20:02:48.597Z,1.83
2022-09-22T20:05:51.204Z,1.77
2022-09-22T20:08:55.977Z,1.38
2022-09-22T20:11:57.968Z,1.83
2022-09-22T20:14:59.828Z,1.58
2022-09-22T20:18:01.724Z,1.73
2022-09-22T20:21:03.721Z,1.73
2022-09-22T20:24:05.915Z,1.80
2022-09-22T20:27:08.286Z,1.70
2022-09-22T20:33:22.398Z,1.90
2022-09-22T20:36:24.325Z,1.80
2022-09-22T20:39:26.321Z,1.80
2022-09-22T20:42:28.242Z,1.38
2022-09-22T20:45:30.123Z,1.90
2022-09-22T20:48:32.006Z,1.60
2022-09-22T20:51:33.880Z,1.80
2022-09-22T20:54:35.713Z,1.70
2022-09-22T20:57:37.673Z,1.55
2022-09-22T21:00:39.571Z,1.70
2022-09-22T21:03:41.855Z,1.50
2022-09-22T21:06:43.765Z,1.75
2022-09-22T21:09:45.701Z,1.60
2022-09-22T21:12:47.637Z,1.60
2022-09-22T21:15:57.313Z,1.70
2022-09-22T21:18:59.211Z,1.63
2022-09-22T21:22:01.281Z,1.67
2022-09-22T21:25:03.358Z,1.73
2022-09-22T21:28:05.256Z,1.63
2022-09-22T21:31:08.590Z,1.55
2022-09-22T21:34:10.696Z,1.67
2022-09-22T21:37:12.594Z,1.80
2022-09-22T21:40:14.612Z,1.98
2022-09-22T21:43:16.527Z,1.90
2022-09-22T21:46:21.092Z,1.75
2022-09-22T21:49:23.917Z,1.70
2022-09-22T21:52:25.811Z,1.92
2022-09-22T21:55:27.831Z,1.80
2022-09-22T21:58:31.843Z,1.85
2022-09-22T22:01:36.745Z,1.92
2022-09-22T22:04:41.088Z,1.60
2022-09-22T22:07:43.074Z,1.85
2022-09-22T22:10:44.943Z,1.77
2022-09-22T22:13:47.075Z,1.77
2022-09-22T22:16:51.618Z,1.80
2022-09-22T22:19:53.459Z,1.85
2022-09-22T22:22:55.385Z,1.60
2022-09-22T22:25:59.241Z,1.80
2022-09-22T22:29:02.465Z,1.80
2022-09-22T22:32:06.748Z,1.80
2022-09-22T22:35:09.341Z,1.92
2022-09-22T22:41:16.271Z,2.00
2022-09-22T22:44:18.210Z,2.47
2022-09-22T22:47:22.687Z,1.95
2022-09-22T22:50:24.766Z,2.05
2022-09-22T22:53:27.059Z,1.90
2022-09-22T22:56:28.995Z,2.03
2022-09-22T22:59:31.131Z,2.20
2022-09-22T23:02:33.096Z,2.22
2022-09-22T23:05:38.345Z,1.83
2022-09-22T23:08:43.596Z,1.98
2022-09-22T23:11:45.731Z,2.30
2022-09-22T23:14:47.674Z,1.75
2022-09-22T23:17:49.730Z,1.88
2022-09-22T23:20:54.427Z,1.90
2022-09-22T23:23:56.785Z,2.00
2022-09-22T23:26:58.940Z,1.77
2022-09-22T23:30:00.945Z,1.95
2022-09-22T23:33:02.858Z,2.05
2022-09-22T23:36:07.184Z,1.90
2022-09-22T23:39:12.264Z,2.10
2022-09-22T23:42:14.288Z,2.22
2022-09-22T23:45:16.375Z,2.35
2022-09-22T23:48:19.757Z,2.42
2022-09-22T23:51:21.819Z,2.33
2022-09-22T23:54:23.888Z,2.13
2022-09-22T23:57:25.897Z,2.03
